Time;durP1;ratioP1;P1;durP2;ratioP2;P2;SDS_P1;SDS_P2;PMS_P1;PMS_P2;Temp;Humidity;BMP_temperature;BMP_pressure;BME280_temperature;BME280_humidity;BME280_pressure;Samples;Min_cycle;Max_cycle;Signal;HPM_P1;HPM_P2
2021/12/31 00:01:19;;;;;;;;;0.00;0.00;;;;;13.03;74.92;101745.09;5031486;28;45566;-82
2021/12/31 00:03:45;;;;;;;;;0.00;0.00;;;;;12.90;74.82;101730.94;5019664;28;45461;-82
2021/12/31 00:06:10;;;;;;;;;0.00;0.00;;;;;13.44;75.47;101816.25;5022954;28;45754;-82
2021/12/31 00:08:35;;;;;;;;;0.00;0.00;;;;;12.54;75.08;101669.47;5054643;28;45427;-82
2021/12/31 00:11:01;;;;;;;;;1.00;0.00;;;;;13.09;75.09;101752.16;5042979;28;45402;-82
2021/12/31 00:13:28;;;;;;;;;2.00;0.00;;;;;13.06;75.09;101757.34;5039003;28;45430;-82
2021/12/31 00:15:53;;;;;;;;;1.00;0.00;;;;;13.40;75.02;101804.88;5039313;28;45470;-82
2021/12/31 00:18:18;;;;;;;;;0.25;0.00;;;;;12.81;74.86;101707.31;5039155;28;45355;-82
2021/12/31 00:20:44;;;;;;;;;0.00;0.00;;;;;13.03;74.69;101744.22;5038072;28;45704;-83
2021/12/31 00:23:12;;;;;;;;;1.00;0.00;;;;;13.09;74.96;101757.38;5040295;28;45371;-82
2021/12/31 00:25:40;;;;;;;;;0.00;0.00;;;;;13.34;74.86;101788.22;5040096;28;45500;-83
2021/12/31 00:28:07;;;;;;;;;0.00;0.00;;;;;13.07;74.88;101750.38;5039782;28;45488;-83
2021/12/31 00:30:34;;;;;;;;;0.00;0.00;;;;;13.07;75.15;101751.25;5039302;28;45381;-82
2021/12/31 00:33:01;;;;;;;;;1.00;1.00;;;;;12.90;74.95;101724.88;5039283;28;45423;-83
2021/12/31 00:35:28;;;;;;;;;2.00;0.00;;;;;13.10;75.11;101766.09;5039627;28;45465;-83
2021/12/31 00:37:54;;;;;;;;;0.75;0.75;;;;;12.38;75.12;101656.16;5040673;28;45403;-82
2021/12/31 00:40:19;;;;;;;;;0.00;0.00;;;;;13.18;75.34;101783.63;5040387;28;45480;-82
2021/12/31 00:42:46;;;;;;;;;1.25;0.00;;;;;13.04;75.12;101759.03;5041788;28;45507;-82
2021/12/31 00:45:16;;;;;;;;;0.00;0.00;;;;;12.49;75.05;101672.00;5047790;28;45344;-82
2021/12/31 00:47:42;;;;;;;;;0.00;0.00;;;;;12.89;74.92;101721.38;5054710;28;45332;-82
2021/12/31 00:50:08;;;;;;;;;0.00;0.00;;;;;13.16;75.06;101758.34;5040806;28;46512;-82
2021/12/31 00:52:33;;;;;;;;;0.00;0.00;;;;;13.17;75.01;101771.44;5040217;28;45423;-82
2021/12/31 00:54:59;;;;;;;;;0.00;0.00;;;;;13.30;74.75;101793.38;5040083;28;45391;-82
2021/12/31 00:57:24;;;;;;;;;0.00;0.00;;;;;13.00;74.76;101741.56;5040694;28;45428;-82
2021/12/31 00:59:50;;;;;;;;;0.00;0.00;;;;;12.88;74.56;101703.94;5039924;27;47642;-82
2021/12/31 01:02:17;;;;;;;;;0.00;0.00;;;;;12.95;74.49;101724.94;5038173;28;45538;-83
2021/12/31 01:04:43;;;;;;;;;0.00;0.00;;;;;12.95;74.77;101714.50;5038774;28;45503;-82
2021/12/31 01:07:09;;;;;;;;;0.00;0.00;;;;;12.58;74.55;101655.59;5037498;28;45485;-83
2021/12/31 01:09:35;;;;;;;;;1.00;0.00;;;;;12.91;74.42;101716.16;5037455;28;46132;-83
2021/12/31 01:12:01;;;;;;;;;1.00;0.00;;;;;12.86;74.38;101726.53;5038000;28;45403;-83
2021/12/31 01:14:37;;;;;;;;;0.00;0.00;;;;;13.17;74.46;101775.81;5038587;28;45514;-83
2021/12/31 01:17:07;;;;;;;;;0.00;0.00;;;;;13.04;74.79;101767.75;5039280;28;45462;-83
2021/12/31 01:22:10;;;;;;;;;0.00;0.00;;;;;12.69;74.02;101687.13;5039051;28;45526;-83
2021/12/31 01:24:36;;;;;;;;;0.50;0.50;;;;;12.74;74.04;101706.34;5038439;28;45957;-83
2021/12/31 01:27:01;;;;;;;;;0.00;0.00;;;;;12.52;73.60;101655.50;5038556;28;45360;-83
2021/12/31 01:29:26;;;;;;;;;0.25;0.00;;;;;12.98;74.10;101751.09;5039819;28;46119;-83
2021/12/31 01:31:54;;;;;;;;;0.00;0.00;;;;;12.84;73.84;101733.50;5040500;28;45572;-82
2021/12/31 01:34:22;;;;;;;;;0.00;0.00;;;;;13.05;74.08;101763.44;5042121;28;45447;-83
2021/12/31 01:36:48;;;;;;;;;0.00;0.00;;;;;12.97;73.83;101744.13;5041967;28;45478;-83
2021/12/31 01:39:13;;;;;;;;;0.00;0.00;;;;;12.88;73.79;101750.97;5040529;28;46215;-83
2021/12/31 01:41:40;;;;;;;;;0.00;0.00;;;;;13.05;73.60;101786.94;5039134;28;45368;-83
2021/12/31 01:44:06;;;;;;;;;0.00;0.00;;;;;12.88;73.40;101760.53;5038174;28;45367;-83
2021/12/31 01:46:33;;;;;;;;;0.25;0.25;;;;;12.49;73.86;101698.13;5040697;27;45479;-83
2021/12/31 01:49:02;;;;;;;;;0.00;0.00;;;;;12.27;73.82;101663.84;5039518;28;45416;-83
2021/12/31 01:51:28;;;;;;;;;0.00;0.00;;;;;12.75;73.71;101735.97;5039850;28;45565;-83
2021/12/31 01:53:54;;;;;;;;;0.00;0.00;;;;;12.54;73.36;101695.59;5039974;28;45745;-82
2021/12/31 01:56:20;;;;;;;;;0.00;0.00;;;;;12.98;73.92;101779.84;5038352;28;45397;-83
2021/12/31 01:58:55;;;;;;;;;0.00;0.00;;;;;12.59;73.29;101727.88;5038057;28;45380;-82
2021/12/31 02:01:22;;;;;;;;;0.00;0.00;;;;;12.80;73.89;101765.63;5037955;28;45363;-82
2021/12/31 02:03:47;;;;;;;;;0.00;0.00;;;;;12.74;73.72;101769.03;5038144;28;45435;-83
2021/12/31 02:06:12;;;;;;;;;0.00;0.00;;;;;12.49;73.75;101726.84;5038483;28;45434;-83
2021/12/31 02:08:38;;;;;;;;;0.00;0.00;;;;;12.42;73.97;101719.75;5040945;28;45446;-83
2021/12/31 02:11:03;;;;;;;;;0.75;0.00;;;;;12.13;73.69;101666.19;5055522;28;44720;-81
2021/12/31 02:13:29;;;;;;;;;0.00;0.00;;;;;12.57;73.87;101745.25;5047070;28;45484;-81
2021/12/31 02:15:54;;;;;;;;;0.00;0.00;;;;;12.33;73.98;101701.31;5039030;28;45357;-81
2021/12/31 02:18:20;;;;;;;;;0.00;0.00;;;;;12.53;73.92;101733.88;5038320;28;45477;-81
2021/12/31 02:20:47;;;;;;;;;0.00;0.00;;;;;12.26;73.97;101689.91;5037515;28;45369;-82
2021/12/31 02:23:27;;;;;;;;;0.00;0.00;;;;;12.65;74.29;101758.47;5037704;28;45376;-82
2021/12/31 02:25:54;;;;;;;;;0.00;0.00;;;;;12.13;73.80;101681.84;5037739;28;45398;-82
2021/12/31 02:28:20;;;;;;;;;0.25;0.00;;;;;12.57;74.07;101752.22;5037406;28;45690;-82
2021/12/31 02:30:47;;;;;;;;;0.00;0.00;;;;;12.48;74.21;101750.31;5037558;27;45483;-82
2021/12/31 02:33:12;;;;;;;;;0.00;0.00;;;;;12.39;73.98;101732.75;5037504;28;45371;-83
2021/12/31 02:35:39;;;;;;;;;0.00;0.00;;;;;12.40;73.86;101732.78;5037578;28;45376;-82
2021/12/31 02:38:06;;;;;;;;;0.00;0.00;;;;;12.39;73.74;101727.53;5037492;28;46523;-82
2021/12/31 02:40:32;;;;;;;;;0.00;0.00;;;;;12.57;73.93;101757.44;5035584;28;45637;-82
2021/12/31 02:42:58;;;;;;;;;1.00;1.00;;;;;12.07;73.74;101660.88;5037941;28;45478;-84
2021/12/31 02:45:36;;;;;;;;;0.00;0.00;;;;;12.38;73.90;101708.38;5040717;28;45548;-83
2021/12/31 02:48:04;;;;;;;;;0.00;0.00;;;;;12.32;73.47;101700.47;5041406;28;46355;-83
2021/12/31 02:50:35;;;;;;;;;0.00;0.00;;;;;12.54;73.36;101733.03;5043454;28;45387;-83
2021/12/31 02:53:03;;;;;;;;;0.00;0.00;;;;;12.52;73.23;101731.22;5046037;28;45385;-84
2021/12/31 02:55:30;;;;;;;;;1.00;0.00;;;;;12.54;73.08;101732.16;5049885;28;45164;-84
2021/12/31 02:57:56;;;;;;;;;0.00;0.00;;;;;12.50;73.38;101736.44;5047279;28;45427;-84
2021/12/31 03:00:22;;;;;;;;;0.00;0.00;;;;;12.53;73.25;101733.88;5040083;28;45427;-83
2021/12/31 03:02:49;;;;;;;;;0.00;0.00;;;;;12.19;73.40;101664.56;5038916;28;45482;-84
2021/12/31 03:05:14;;;;;;;;;0.25;0.25;;;;;12.52;73.01;101721.69;5039351;28;45527;-84
2021/12/31 03:07:42;;;;;;;;;0.00;0.00;;;;;11.97;73.06;101641.53;5039980;28;46154;-83
2021/12/31 03:10:09;;;;;;;;;0.00;0.00;;;;;12.44;72.92;101709.34;5040012;28;45375;-84
2021/12/31 03:12:36;;;;;;;;;0.00;0.00;;;;;12.31;72.67;101685.63;5039890;28;45479;-83
2021/12/31 03:15:02;;;;;;;;;0.00;0.00;;;;;12.61;72.35;101743.56;5040320;28;45678;-83
2021/12/31 03:17:27;;;;;;;;;0.00;0.00;;;;;12.61;73.02;101752.28;5039931;28;45863;-83
2021/12/31 03:20:00;;;;;;;;;0.00;0.00;;;;;12.01;72.68;101664.22;5039714;28;45751;-83
2021/12/31 03:22:25;;;;;;;;;0.00;0.00;;;;;12.20;72.54;101682.84;5038965;28;45469;-83
2021/12/31 03:24:51;;;;;;;;;0.00;0.00;;;;;12.00;72.56;101657.25;5040485;28;45407;-83
2021/12/31 03:27:16;;;;;;;;;0.00;0.00;;;;;12.24;72.09;101708.16;5040573;28;46043;-82
2021/12/31 03:29:42;;;;;;;;;0.75;0.75;;;;;12.08;72.25;101688.75;5040901;28;45441;-83
2021/12/31 03:32:07;;;;;;;;;0.00;0.00;;;;;12.15;72.32;101710.59;5042301;28;45914;-83
2021/12/31 03:34:32;;;;;;;;;0.00;0.00;;;;;11.94;72.03;101684.97;5050619;27;45242;-83
2021/12/31 03:36:58;;;;;;;;;0.00;0.00;;;;;12.16;71.98;101731.50;5080984;27;46247;-82
2021/12/31 03:39:23;;;;;;;;;0.00;0.00;;;;;12.19;72.13;101729.81;5040251;28;45473;-83
2021/12/31 03:41:48;;;;;;;;;1.00;0.00;;;;;12.41;71.51;101745.00;5040297;28;45655;-83
2021/12/31 03:44:14;;;;;;;;;0.25;0.25;;;;;12.39;71.40;101738.88;5040583;28;45462;-84
2021/12/31 03:46:39;;;;;;;;;0.00;0.00;;;;;11.83;71.20;101635.19;5039797;28;47558;-83
2021/12/31 03:49:05;;;;;;;;;2.00;0.00;;;;;12.50;71.66;101746.00;5042463;28;45462;-83
2021/12/31 03:51:30;;;;;;;;;1.00;0.00;;;;;12.43;71.59;101750.25;5040192;28;45352;-82
2021/12/31 03:53:55;;;;;;;;;1.00;0.00;;;;;11.90;71.60;101666.66;5042037;28;45454;-82
2021/12/31 03:56:23;;;;;;;;;0.00;0.00;;;;;11.91;71.60;101667.50;5042471;28;45623;-82
2021/12/31 03:58:49;;;;;;;;;0.00;0.00;;;;;11.95;71.31;101671.06;5042429;28;45293;-82
2021/12/31 04:01:14;;;;;;;;;0.00;0.00;;;;;11.94;71.74;101664.09;5041012;28;45298;-82
2021/12/31 04:03:39;;;;;;;;;0.00;0.00;;;;;11.43;71.65;101583.19;5040105;28;45372;-83
2021/12/31 04:06:05;;;;;;;;;0.00;0.00;;;;;11.73;71.62;101647.22;5041990;28;45306;-82
2021/12/31 04:08:30;;;;;;;;;1.00;0.00;;;;;12.14;71.96;101721.91;5052743;28;45198;-83
2021/12/31 04:10:55;;;;;;;;;0.00;0.00;;;;;11.94;71.76;101682.38;5053332;28;45436;-83
2021/12/31 04:13:21;;;;;;;;;0.00;0.00;;;;;11.66;71.75;101639.25;5054177;28;45195;-83
2021/12/31 04:15:46;;;;;;;;;0.50;0.00;;;;;12.02;71.79;101705.16;5050390;28;45995;-83
2021/12/31 04:18:11;;;;;;;;;0.00;0.00;;;;;11.24;72.10;101593.28;5053003;28;44664;-82
2021/12/31 04:20:41;;;;;;;;;0.00;0.00;;;;;11.99;71.99;101709.41;5041207;28;45672;-83
2021/12/31 04:23:14;;;;;;;;;1.75;0.00;;;;;12.05;72.41;101717.34;5040903;28;45416;-82
2021/12/31 04:25:40;;;;;;;;;0.00;0.00;;;;;12.09;72.24;101720.91;5129367;27;46521;-82
2021/12/31 04:28:06;;;;;;;;;0.00;0.00;;;;;11.64;71.83;101637.50;5043728;28;45242;-83
2021/12/31 04:30:32;;;;;;;;;0.00;0.00;;;;;11.63;71.70;101635.72;5042525;28;45520;-82
2021/12/31 04:32:58;;;;;;;;;0.00;0.00;;;;;11.70;72.01;101621.06;5042337;28;45362;-81
2021/12/31 04:35:24;;;;;;;;;0.00;0.00;;;;;11.93;71.89;101647.56;5040697;28;45504;-81
2021/12/31 04:37:49;;;;;;;;;0.00;0.00;;;;;12.07;71.89;101679.13;5038352;28;45346;-81
2021/12/31 04:40:15;;;;;;;;;0.00;0.00;;;;;11.75;71.56;101629.84;5039266;28;45375;-82
2021/12/31 04:42:41;;;;;;;;;0.00;0.00;;;;;11.56;71.81;101590.41;5039196;28;45371;-83
2021/12/31 04:45:08;;;;;;;;;0.00;0.00;;;;;11.54;72.03;101599.91;5039123;28;45353;-84
2021/12/31 04:47:34;;;;;;;;;0.00;0.00;;;;;11.60;71.71;101614.78;5038783;28;45670;-81
2021/12/31 04:49:59;;;;;;;;;0.00;0.00;;;;;11.49;72.39;101614.59;5038970;28;45458;-81
2021/12/31 04:52:25;;;;;;;;;0.75;0.00;;;;;11.71;71.90;101654.13;5043075;28;45423;-80
2021/12/31 04:54:50;;;;;;;;;2.00;0.00;;;;;11.39;72.10;101600.50;5050859;28;46430;-81
2021/12/31 04:57:16;;;;;;;;;0.00;0.00;;;;;11.77;72.40;101660.31;5050653;28;45351;-82
2021/12/31 04:59:41;;;;;;;;;0.00;0.00;;;;;12.05;72.41;101709.53;5057876;27;45372;-81
2021/12/31 05:02:06;;;;;;;;;0.00;0.00;;;;;11.75;72.21;101663.75;5064796;27;44750;-81
2021/12/31 05:04:33;;;;;;;;;0.00;0.00;;;;;12.11;72.30;101724.44;5050250;27;45373;-82
2021/12/31 05:06:58;;;;;;;;;1.75;0.00;;;;;12.02;72.05;101686.88;5040830;28;45576;-81
2021/12/31 05:09:24;;;;;;;;;0.00;0.00;;;;;11.71;71.63;101649.78;5039302;28;45368;-82
2021/12/31 05:11:49;;;;;;;;;1.00;0.00;;;;;11.68;71.84;101646.22;5039486;28;45350;-82
2021/12/31 05:14:15;;;;;;;;;0.00;0.00;;;;;11.57;71.46;101627.75;5039595;28;46262;-82
2021/12/31 05:16:40;;;;;;;;;0.00;0.00;;;;;12.02;71.87;101712.09;5039415;28;45369;-82
2021/12/31 05:19:06;;;;;;;;;0.00;0.00;;;;;11.57;71.46;101627.75;5038517;28;45387;-82
2021/12/31 05:21:32;;;;;;;;;0.00;0.00;;;;;12.10;72.10;101715.72;5039075;28;45450;-82
2021/12/31 05:23:59;;;;;;;;;1.75;0.00;;;;;11.88;71.71;101665.75;5038837;28;45473;-82
2021/12/31 05:26:24;;;;;;;;;0.00;0.00;;;;;11.62;71.81;101628.75;5039083;28;45491;-82
2021/12/31 05:28:50;;;;;;;;;0.00;0.00;;;;;11.84;71.70;101674.38;5038227;28;45411;-82
2021/12/31 05:31:16;;;;;;;;;0.75;0.00;;;;;11.60;71.67;101628.72;5038677;28;45407;-81
2021/12/31 05:33:42;;;;;;;;;0.00;0.00;;;;;11.93;71.74;101686.69;5037849;28;45415;-81
2021/12/31 05:36:07;;;;;;;;;0.00;0.00;;;;;11.89;71.95;101672.69;5038585;28;45360;-82
2021/12/31 05:38:33;;;;;;;;;0.00;0.00;;;;;11.55;71.82;101619.94;5038764;28;45465;-82
2021/12/31 05:40:59;;;;;;;;;0.00;0.00;;;;;12.01;71.51;101679.88;5038838;28;45470;-84
2021/12/31 05:43:25;;;;;;;;;0.00;0.00;;;;;11.98;71.65;101676.34;5038173;28;45401;-83
2021/12/31 05:45:50;;;;;;;;;0.00;0.00;;;;;11.55;71.92;101617.34;5038873;28;45397;-84
2021/12/31 05:48:16;;;;;;;;;0.00;0.00;;;;;11.30;71.98;101566.44;5037162;28;45366;-83
2021/12/31 05:50:44;;;;;;;;;0.00;0.00;;;;;11.39;71.98;101590.94;5039231;28;45319;-80
2021/12/31 05:53:10;;;;;;;;;0.00;0.00;;;;;10.88;71.75;101491.81;5036938;28;45586;-82
2021/12/31 05:55:35;;;;;;;;;0.00;0.00;;;;;11.75;72.10;101650.72;5037828;28;45471;-82
2021/12/31 05:58:02;;;;;;;;;0.00;0.00;;;;;11.30;72.27;101590.78;5037893;28;45446;-82
2021/12/31 06:00:29;;;;;;;;;0.00;0.00;;;;;11.66;72.39;101651.41;5037985;28;45365;-82
2021/12/31 06:02:57;;;;;;;;;0.00;0.00;;;;;11.47;72.31;101638.03;5037373;28;46407;-82
2021/12/31 06:05:27;;;;;;;;;0.00;0.00;;;;;11.28;72.50;101621.16;5037414;28;45499;-82
2021/12/31 06:07:55;;;;;;;;;0.00;0.00;;;;;11.01;72.51;101583.25;5037438;28;45435;-82
2021/12/31 06:10:21;;;;;;;;;0.00;0.00;;;;;10.67;72.61;101522.66;5037746;28;45360;-82
2021/12/31 06:12:46;;;;;;;;;0.00;0.00;;;;;11.61;72.44;101695.66;5036177;28;47354;-80
2021/12/31 06:15:16;;;;;;;;;0.00;0.00;;;;;11.48;72.02;101673.69;5037650;28;45401;-82
2021/12/31 06:17:41;;;;;;;;;0.00;0.00;;;;;11.15;72.60;101625.25;5038605;28;45478;-82
2021/12/31 06:20:31;;;;;;;;;0.00;0.00;;;;;11.71;72.85;101711.50;5037724;27;45548;-82
2021/12/31 06:22:58;;;;;;;;;1.75;0.00;;;;;11.77;72.41;101701.19;5043284;28;45351;-82
2021/12/31 06:25:25;;;;;;;;;0.25;0.00;;;;;11.16;72.62;101574.88;5055662;27;44858;-81
2021/12/31 06:27:51;;;;;;;;;0.00;0.00;;;;;11.84;72.30;101691.75;5061103;28;44804;-82
2021/12/31 06:30:16;;;;;;;;;0.00;0.00;;;;;11.17;72.17;101575.72;5039604;28;45404;-81
2021/12/31 06:32:41;;;;;;;;;7.25;1.50;;;;;11.50;71.94;101632.00;5040242;28;46408;-82
2021/12/31 06:35:07;;;;;;;;;0.75;0.75;;;;;11.66;72.12;101665.34;5040682;27;45349;-81
2021/12/31 06:37:33;;;;;;;;;0.75;0.75;;;;;11.32;71.96;101609.94;5040615;28;45442;-81
2021/12/31 06:40:03;;;;;;;;;0.50;0.50;;;;;11.62;71.86;101676.56;5040589;28;45399;-82
2021/12/31 06:42:29;;;;;;;;;0.00;0.00;;;;;11.34;72.18;101633.44;5040368;28;45481;-82
2021/12/31 06:44:54;;;;;;;;;1.50;1.00;;;;;11.71;72.28;101693.25;5038764;28;45588;-82
2021/12/31 06:47:19;;;;;;;;;0.00;0.00;;;;;11.27;72.35;101621.97;5040763;28;45473;-83
2021/12/31 06:49:45;;;;;;;;;0.00;0.00;;;;;11.75;72.15;101702.88;5039310;28;45481;-82
2021/12/31 06:52:10;;;;;;;;;0.75;0.00;;;;;11.73;71.92;101710.66;5040522;28;45805;-82
2021/12/31 06:54:36;;;;;;;;;0.00;0.00;;;;;11.73;72.48;101712.41;5040675;28;45426;-82
2021/12/31 06:57:03;;;;;;;;;0.00;0.00;;;;;11.43;71.62;101644.03;5041164;28;45455;-82
2021/12/31 06:59:29;;;;;;;;;0.00;0.00;;;;;11.68;72.03;101677.53;5040348;28;45237;-82
2021/12/31 07:01:55;;;;;;;;;0.00;0.00;;;;;10.96;72.24;101559.72;5038843;28;46202;-82
2021/12/31 07:04:20;;;;;;;;;0.00;0.00;;;;;11.56;72.08;101681.66;5040986;28;45359;-81
2021/12/31 07:06:46;;;;;;;;;0.75;0.00;;;;;10.80;72.43;101589.78;5038919;28;45368;-82
2021/12/31 07:09:11;;;;;;;;;0.50;0.00;;;;;11.34;72.44;101681.25;5040429;28;45348;-81
2021/12/31 07:11:37;;;;;;;;;0.00;0.00;;;;;11.17;72.56;101652.19;5038653;28;48106;-81
2021/12/31 07:14:02;;;;;;;;;0.00;0.00;;;;;11.05;72.75;101658.03;5040225;28;45293;-82
2021/12/31 07:16:28;;;;;;;;;0.00;0.00;;;;;11.03;72.47;101631.09;5039935;28;45842;-82
2021/12/31 07:18:53;;;;;;;;;0.00;0.00;;;;;11.39;72.32;101689.13;5039927;28;45564;-82
2021/12/31 07:21:18;;;;;;;;;0.00;0.00;;;;;11.56;72.46;101718.19;5040316;28;45503;-81
2021/12/31 07:23:44;;;;;;;;;0.00;0.00;;;;;10.88;72.52;101618.59;5040456;28;45442;-82
2021/12/31 07:26:09;;;;;;;;;0.00;0.00;;;;;10.86;72.44;101629.00;5031475;27;45478;-83
2021/12/31 07:28:35;;;;;;;;;0.00;0.00;;;;;10.86;72.42;101612.47;5022762;27;45795;-84
2021/12/31 07:31:00;;;;;;;;;0.00;0.00;;;;;11.07;72.32;101634.63;5029089;27;45599;-83
2021/12/31 07:33:25;;;;;;;;;0.00;0.00;;;;;11.61;72.01;101703.47;5032200;27;45451;-83
2021/12/31 07:35:52;;;;;;;;;0.00;0.00;;;;;11.76;72.19;101746.41;5039991;27;45380;-82
2021/12/31 07:38:27;;;;;;;;;0.00;0.00;;;;;11.76;72.00;101733.34;5040104;27;45541;-82
2021/12/31 07:40:53;;;;;;;;;0.00;0.00;;;;;11.65;71.85;101707.94;5021312;28;46753;-83
2021/12/31 07:43:21;;;;;;;;;0.00;0.00;;;;;11.35;72.10;101667.34;5017970;28;45447;-83
2021/12/31 07:45:47;;;;;;;;;0.00;0.00;;;;;11.26;72.16;101647.19;5019677;28;45401;-83
2021/12/31 07:48:12;;;;;;;;;0.50;0.00;;;;;11.48;72.44;101678.00;5034780;28;44800;-83
2021/12/31 07:50:38;;;;;;;;;0.00;0.00;;;;;11.52;72.18;101685.06;5049343;28;46058;-83
2021/12/31 07:53:05;;;;;;;;;0.00;0.00;;;;;11.03;72.10;101620.66;5058192;27;44895;-83
2021/12/31 07:55:31;;;;;;;;;0.50;0.00;;;;;10.63;72.24;101545.16;5125788;27;45462;-83
2021/12/31 07:57:56;;;;;;;;;0.00;0.00;;;;;10.61;72.04;101568.56;5039382;28;45571;-83
2021/12/31 08:00:21;;;;;;;;;0.00;0.00;;;;;11.32;72.24;101687.25;5039255;28;45405;-83
2021/12/31 08:02:47;;;;;;;;;0.00;0.00;;;;;11.08;72.19;101616.41;5038693;28;45443;-83
2021/12/31 08:05:12;;;;;;;;;0.00;0.00;;;;;10.85;71.96;101588.16;5038992;28;45444;-82
2021/12/31 08:07:38;;;;;;;;;0.00;0.00;;;;;11.26;72.30;101649.78;5038400;28;45613;-81
2021/12/31 08:10:04;;;;;;;;;0.00;0.00;;;;;11.81;72.07;101733.41;5039215;28;45419;-81
2021/12/31 08:12:30;;;;;;;;;0.00;0.00;;;;;11.81;71.79;101731.69;5024144;28;45354;-84
2021/12/31 08:14:56;;;;;;;;;0.00;0.00;;;;;11.23;71.51;101667.09;5035419;28;45364;-83
2021/12/31 08:17:21;;;;;;;;;0.00;0.00;;;;;11.89;71.88;101758.81;5031512;28;45542;-83
2021/12/31 08:19:47;;;;;;;;;2.25;0.00;;;;;11.94;71.78;101776.31;5038430;28;46405;-82
2021/12/31 08:22:12;;;;;;;;;0.25;0.00;;;;;11.90;71.58;101746.66;5046026;27;45367;-82
2021/12/31 08:24:38;;;;;;;;;0.00;0.00;;;;;12.00;71.24;101747.69;5022512;28;45576;-82
2021/12/31 08:27:03;;;;;;;;;0.00;0.00;;;;;11.77;71.52;101689.00;5026403;27;45552;-83
2021/12/31 08:29:29;;;;;;;;;0.00;0.00;;;;;11.51;71.27;101649.38;5027000;28;45462;-84
2021/12/31 08:31:54;;;;;;;;;0.00;0.00;;;;;11.80;71.11;101701.25;5037340;28;45770;-82
2021/12/31 08:34:20;;;;;;;;;0.00;0.00;;;;;11.23;70.78;101584.56;5038943;28;45426;-83
2021/12/31 08:36:45;;;;;;;;;0.00;0.00;;;;;12.03;70.87;101729.50;5038031;27;45507;-83
2021/12/31 08:39:11;;;;;;;;;0.00;0.00;;;;;12.03;71.02;101752.97;5025451;28;47119;-84
2021/12/31 08:41:38;;;;;;;;;0.00;0.00;;;;;11.95;71.16;101746.75;5017782;28;45411;-86
2021/12/31 08:44:04;;;;;;;;;0.00;0.00;;;;;12.05;71.06;101756.50;5031610;28;45375;-83
2021/12/31 08:46:31;;;;;;;;;0.00;0.00;;;;;12.17;71.31;101758.50;5028001;28;45332;-87
2021/12/31 08:48:57;;;;;;;;;0.00;0.00;;;;;12.29;71.11;101753.47;5035139;28;48433;-88
2021/12/31 08:51:23;;;;;;;;;1.75;0.00;;;;;11.30;70.60;101577.72;5024866;28;45258;-88
2021/12/31 08:54:17;;;;;;;;;3.50;0.50;;;;;11.41;70.41;101606.63;5043523;28;45461;-88
2021/12/31 08:56:43;;;;;;;;;0.00;0.00;;;;;11.91;70.61;101693.59;5022686;28;44826;-82
2021/12/31 08:59:09;;;;;;;;;0.00;0.00;;;;;12.51;70.89;101774.78;5017607;28;47013;-82
2021/12/31 09:01:36;;;;;;;;;0.00;0.00;;;;;12.55;70.21;101788.75;5033049;27;45526;-86
2021/12/31 09:04:01;;;;;;;;;0.00;0.00;;;;;11.62;69.81;101634.84;5039900;28;45334;-80
2021/12/31 09:06:26;;;;;;;;;0.00;0.00;;;;;11.84;70.66;101673.47;5021299;28;45466;-79
2021/12/31 09:08:52;;;;;;;;;0.00;0.00;;;;;12.31;70.63;101753.50;5026256;28;46215;-81
2021/12/31 09:11:17;;;;;;;;;0.00;0.00;;;;;12.45;70.58;101759.00;5035986;27;45691;-81
2021/12/31 09:13:43;;;;;;;;;0.00;0.00;;;;;12.65;70.12;101785.44;5038883;27;45828;-81
2021/12/31 09:16:09;;;;;;;;;1.25;0.00;;;;;12.28;70.47;101719.50;5046878;27;45261;-82
2021/12/31 09:18:35;;;;;;;;;0.00;0.00;;;;;12.50;70.00;101752.09;5050334;27;45342;-80
2021/12/31 09:21:01;;;;;;;;;0.00;0.00;;;;;12.34;69.63;101721.38;5029804;28;45468;-82
2021/12/31 09:23:27;;;;;;;;;0.00;0.00;;;;;11.92;69.70;101664.06;5029981;28;45399;-80
2021/12/31 09:25:52;;;;;;;;;0.00;0.00;;;;;11.65;69.73;101640.13;5029036;28;45366;-80
2021/12/31 09:28:17;;;;;;;;;0.00;0.00;;;;;11.76;69.97;101657.72;5027977;27;45743;-80
2021/12/31 09:30:44;;;;;;;;;0.00;0.00;;;;;12.41;70.14;101778.06;5025448;28;45792;-80
2021/12/31 09:33:09;;;;;;;;;0.00;0.00;;;;;12.07;70.59;101720.88;5032454;28;45537;-81
2021/12/31 09:35:36;;;;;;;;;1.00;0.00;;;;;12.41;70.09;101770.25;5030562;28;45481;-80
2021/12/31 09:38:08;;;;;;;;;0.00;0.00;;;;;12.36;69.84;101770.16;5030569;28;45552;-80
2021/12/31 09:40:34;;;;;;;;;0.00;0.00;;;;;11.98;70.35;101685.03;5027192;27;45571;-81
2021/12/31 09:43:09;;;;;;;;;0.00;0.00;;;;;12.79;70.14;101803.09;5035937;28;45396;-81
2021/12/31 09:45:36;;;;;;;;;0.00;0.00;;;;;12.80;69.71;101787.44;5027066;28;45742;-80
2021/12/31 09:48:12;;;;;;;;;0.00;0.00;;;;;13.06;69.41;101820.06;5026945;28;45430;-80
2021/12/31 09:50:43;;;;;;;;;1.25;0.25;;;;;13.03;69.32;101800.00;5027613;28;45712;-79
2021/12/31 09:53:12;;;;;;;;;0.00;0.00;;;;;13.37;68.87;101846.69;5032170;27;45648;-86
2021/12/31 09:55:57;;;;;;;;;0.00;0.00;;;;;13.47;68.69;101833.75;5033372;27;45526;-80
2021/12/31 09:58:25;;;;;;;;;0.00;0.00;;;;;13.62;68.29;101843.56;5025458;28;46787;-82
2021/12/31 10:01:01;;;;;;;;;2.25;1.00;;;;;13.68;68.48;101841.03;5032615;27;45389;-82
2021/12/31 10:03:32;;;;;;;;;0.00;0.00;;;;;13.28;68.14;101755.00;5033669;28;45417;-81
2021/12/31 10:06:09;;;;;;;;;0.00;0.00;;;;;13.31;67.68;101747.22;5023553;28;45296;-80
2021/12/31 10:08:43;;;;;;;;;0.00;0.00;;;;;13.40;67.62;101741.22;5025060;27;45534;-82
2021/12/31 10:11:18;;;;;;;;;0.00;0.00;;;;;13.67;66.87;101795.69;5021523;28;45408;-81
2021/12/31 10:13:48;;;;;;;;;0.00;0.00;;;;;13.26;67.48;101744.53;5021688;27;45683;-82
2021/12/31 10:16:24;;;;;;;;;0.00;0.00;;;;;13.72;66.96;101810.56;5031481;28;45492;-81
2021/12/31 10:19:04;;;;;;;;;0.00;0.00;;;;;14.14;67.10;101860.78;5027150;28;45594;-81
2021/12/31 10:21:46;;;;;;;;;0.00;0.00;;;;;14.07;66.75;101844.13;5038532;28;45486;-85
2021/12/31 10:24:38;;;;;;;;;0.75;0.00;;;;;14.38;66.58;101861.91;5034439;28;45436;-81
2021/12/31 10:27:25;;;;;;;;;0.00;0.00;;;;;14.44;66.18;101852.41;5045426;28;45467;-83
2021/12/31 10:30:04;;;;;;;;;0.00;0.00;;;;;14.13;66.25;101786.59;5023293;27;46570;-83
2021/12/31 10:32:33;;;;;;;;;0.00;0.00;;;;;14.09;66.26;101778.69;5019699;28;45364;-82
2021/12/31 10:35:18;;;;;;;;;0.00;0.00;;;;;14.51;65.92;101883.88;5020612;27;45510;-82
2021/12/31 10:37:46;;;;;;;;;0.00;0.00;;;;;14.11;65.69;101831.94;5019612;27;45699;-79
2021/12/31 10:40:24;;;;;;;;;0.00;0.00;;;;;14.11;65.85;101831.94;5019448;28;46447;-81
2021/12/31 10:43:04;;;;;;;;;0.00;0.00;;;;;14.21;65.51;101846.03;5022598;27;45306;-80
2021/12/31 10:45:29;;;;;;;;;0.00;0.00;;;;;14.01;65.52;101825.72;5000948;28;45348;-79
2021/12/31 10:48:12;;;;;;;;;0.00;0.00;;;;;14.22;65.60;101869.63;5015775;28;45401;-82
2021/12/31 10:50:51;;;;;;;;;1.00;0.00;;;;;13.92;65.61;101831.72;5020218;28;45939;-80
2021/12/31 10:53:32;;;;;;;;;0.00;0.00;;;;;14.19;65.99;101875.69;5016405;27;45403;-82
2021/12/31 10:56:06;;;;;;;;;0.00;0.00;;;;;14.33;65.67;101903.78;5010265;28;45472;-82
2021/12/31 10:58:31;;;;;;;;;0.00;0.00;;;;;13.93;65.60;101830.88;5009651;28;45338;-81
2021/12/31 11:00:59;;;;;;;;;1.00;0.00;;;;;14.06;65.30;101845.84;5018949;27;45383;-81
2021/12/31 11:03:25;;;;;;;;;0.00;0.00;;;;;14.39;65.49;101871.53;5017902;28;45333;-80
2021/12/31 11:05:53;;;;;;;;;0.00;0.00;;;;;14.33;65.79;101848.78;5005101;27;45463;-80
2021/12/31 11:08:19;;;;;;;;;0.00;0.00;;;;;14.46;65.41;101872.50;5009704;28;45428;-82
2021/12/31 11:10:45;;;;;;;;;0.00;0.00;;;;;14.81;65.59;101942.75;5018044;28;45412;-80
2021/12/31 11:13:19;;;;;;;;;0.00;0.00;;;;;14.81;65.25;101934.91;5021230;28;45403;-80
2021/12/31 11:15:47;;;;;;;;;0.00;0.00;;;;;14.79;65.33;101924.41;5022794;28;45442;-81
2021/12/31 11:18:19;;;;;;;;;0.00;0.00;;;;;14.65;65.27;101889.28;5018286;28;45803;-82
2021/12/31 11:20:46;;;;;;;;;0.00;0.00;;;;;14.77;65.00;101902.53;5022974;28;45618;-81
2021/12/31 11:23:11;;;;;;;;;0.00;0.00;;;;;14.39;64.97;101840.09;5006895;28;45346;-82
2021/12/31 11:25:50;;;;;;;;;0.00;0.00;;;;;14.60;65.05;101878.75;5008608;28;45908;-80
2021/12/31 11:28:26;;;;;;;;;0.00;0.00;;;;;14.86;65.16;101912.25;5086037;27;45408;-81